Boston, Massachusetts
Current Conditions -  °F | °C
As of 2:54 PM on Monday 24 Nov 2014 (Local Time) from KBOS Reporting Station
Overcast Overcast  
Wind Chill: 64°   Ceiling: 1600
Heat Index: 64°   Visibility: 10mi
Dew Point: 61°   Wind: 18mph
Humidity: 90%   Direction: 190°S
Pressure: 29.6"   Gusts: 28mph
Location:  42.36°N, 71.06°W
Report Text: KBOS 241954Z 19016G24KT 10SM OVC016 18/16 A2960 RMK AO2 SLP022 T01780161
Loading
Personal Weather Stations






























Interactive Weather Map New forecast layout! Learn more

10-Day Weather Forecast

Advertisements
Track Severe Weather on mobile